E.r. Borneo — A8SZ4 — position and weather

sailwx.info

Track history (hours):
 
Tides and Currents Weather Stations Pressure Air Temp Water Temp Dewpoint Dewpoint Depression Visibility Wind Speed Wind Dir Waves Ship Positions

E.r. Borneo

Last reported at 2015-Aug-31 01:08 UTC. Time now 2015-Sep-04 14:35 UTC.
Position N 34°34' E 135°13'.

Length 292 m; draft 13.8 m.

Type: Cargo ship. MMSI: 636091797.

Date/timePositionNaut miles runAvg speedWind from/ knotsBaromVisibWave heightAir tempDewpointWater temp
2015-Aug-31 01:08N 34°34' E 135°13'0 0.8
2015-Aug-31 00:33N 34°35' E 135°13'0 0.0
2015-Aug-30 15:30N 34°35' E 135°13'0 0.1
2015-Aug-30 14:30N 34°35' E 135°13'0 0.1
2015-Aug-30 13:33N 34°35' E 135°13'0 0.1
2015-Aug-30 06:33N 34°34' E 135°13'1310.0
2015-Aug-30 05:17N 34°24' E 135°04'912.0
2015-Aug-30 04:31N 34°16' E 134°59'1010.2
2015-Aug-30 03:33N 34°06' E 135°00'1110.6
2015-Aug-30 02:33N 33°56' E 135°00'235 5.0
2015-Aug-28 03:33N 35°02' E 139°34'1212.3
2015-Aug-28 02:33N 35°09' E 139°45'1110.9
2015-Aug-28 01:33N 35°20' E 139°43'9 8.9
2015-Aug-28 00:33N 35°29' E 139°45'0 0.2
2015-Aug-27 23:28N 35°29' E 139°44'0 0.0
2015-Aug-27 22:28N 35°29' E 139°44'0 0.0
2015-Aug-27 21:31N 35°29' E 139°44'0 0.0
2015-Aug-27 20:31N 35°29' E 139°44'0 0.0
2015-Aug-27 19:31N 35°29' E 139°44'0 0.0
2015-Aug-27 18:31N 35°29' E 139°44'0 0.0
2015-Aug-27 17:31N 35°29' E 139°44'0 0.0
2015-Aug-27 16:31N 35°29' E 139°44'0 0.0
2015-Aug-27 15:31N 35°29' E 139°44'0 0.0
2015-Aug-27 14:31N 35°29' E 139°44'0 0.0
2015-Aug-27 13:31N 35°29' E 139°44'0 0.0
2015-Aug-27 12:31N 35°29' E 139°44'0 0.0
2015-Aug-27 11:28N 35°29' E 139°44'0 0.0
2015-Aug-27 10:31N 35°29' E 139°44'0 0.0
2015-Aug-27 09:31N 35°29' E 139°44'0 0.0
2015-Aug-27 08:31N 35°29' E 139°44'0 0.0
2015-Aug-27 07:31N 35°29' E 139°44'0 0.0
2015-Aug-27 06:31N 35°29' E 139°44'0 0.0
2015-Aug-27 05:31N 35°29' E 139°44'0 0.0
2015-Aug-27 04:31N 35°29' E 139°44'0 0.0
2015-Aug-27 03:31N 35°29' E 139°44'0 0.0
2015-Aug-27 02:31N 35°29' E 139°44'0 0.0
2015-Aug-27 01:31N 35°29' E 139°44'0 0.0
2015-Aug-27 00:31N 35°29' E 139°44'0 0.0
2015-Aug-26 23:31N 35°29' E 139°44'0 0.0
2015-Aug-26 22:31N 35°29' E 139°44'0 0.0
2015-Aug-26 21:31N 35°29' E 139°44'0 0.0
2015-Aug-26 20:31N 35°29' E 139°44'0 0.0
2015-Aug-26 19:31N 35°29' E 139°44'0 0.0
2015-Aug-26 18:31N 35°29' E 139°44'0 0.0
2015-Aug-26 17:31N 35°29' E 139°44'0 0.0
2015-Aug-26 16:31N 35°29' E 139°44'0 0.0
2015-Aug-26 15:31N 35°29' E 139°44'0 0.0
2015-Aug-26 14:31N 35°29' E 139°44'0 0.0
2015-Aug-26 13:31N 35°29' E 139°44'0 0.0
2015-Aug-26 12:31N 35°29' E 139°44'0 0.0
2015-Aug-26 11:31N 35°29' E 139°44'0 0.0
2015-Aug-26 10:31N 35°29' E 139°44'0 0.0
2015-Aug-26 09:31N 35°29' E 139°44'0 0.0
2015-Aug-26 08:31N 35°29' E 139°44'0 0.0
2015-Aug-26 07:31N 35°29' E 139°44'0 0.0
2015-Aug-26 06:31N 35°29' E 139°44'0 0.0
2015-Aug-26 05:31N 35°29' E 139°44'0 0.0
2015-Aug-26 04:31N 35°29' E 139°44'0 0.0
2015-Aug-26 03:31N 35°29' E 139°44'0 0.0
2015-Aug-26 02:31N 35°29' E 139°44'0 0.0
2015-Aug-26 01:31N 35°29' E 139°44'0 0.0
2015-Aug-26 00:31N 35°29' E 139°44'0 0.1
2015-Aug-25 23:33N 35°29' E 139°45'2 2.4
2015-Aug-25 22:33N 35°26' E 139°45'0 0.1
2015-Aug-25 21:31N 35°26' E 139°45'0 0.1
2015-Aug-25 20:31N 35°26' E 139°45'0 0.1
2015-Aug-25 19:31N 35°26' E 139°45'0 0.1
2015-Aug-25 18:31N 35°27' E 139°45'0 0.1
2015-Aug-25 17:31N 35°27' E 139°45'0 0.1
2015-Aug-25 16:31N 35°27' E 139°45'0 0.0
2015-Aug-25 15:31N 35°27' E 139°45'0 0.0
2015-Aug-25 14:31N 35°26' E 139°45'0 0.0
2015-Aug-25 13:31N 35°26' E 139°45'0 0.0
2015-Aug-25 12:31N 35°26' E 139°45'0 0.0
2015-Aug-25 11:31N 35°26' E 139°45'0 0.0
2015-Aug-25 10:31N 35°26' E 139°45'0 0.1
2015-Aug-25 09:31N 35°26' E 139°45'0 0.0
2015-Aug-25 08:31N 35°27' E 139°45'0 0.1
2015-Aug-25 07:31N 35°27' E 139°45'0 0.1
2015-Aug-25 06:31N 35°26' E 139°45'0 0.2
2015-Aug-25 05:31N 35°26' E 139°45'3 3.3
2015-Aug-25 04:33N 35°23' E 139°46'1111.4
2015-Aug-25 03:33N 35°12' E 139°47'9 8.9
2015-Aug-25 02:33N 35°03' E 139°45'1110.9
2015-Aug-25 01:32N 34°53' E 139°38'  
Track history (hours):
 
Tides and Currents Weather Stations Pressure Air Temp Water Temp Dewpoint Dewpoint Depression Visibility Wind Speed Wind Dir Waves Ship Positions

E.r. Borneo

Last reported at 2015-Aug-31 01:08 UTC. Time now 2015-Sep-04 14:35 UTC.
Position N 34°34' E 135°13'.

Length 292 m; draft 13.8 m.

Type: Cargo ship. MMSI: 636091797.

Date/timePositionNaut miles runAvg speedWind from/ knotsBaromVisibWave heightAir tempDewpointWater temp
2015-Aug-31 01:08N 34°34' E 135°13'0 0.8
2015-Aug-31 00:33N 34°35' E 135°13'0 0.0
2015-Aug-30 15:30N 34°35' E 135°13'0 0.1
2015-Aug-30 14:30N 34°35' E 135°13'0 0.1
2015-Aug-30 13:33N 34°35' E 135°13'0 0.1
2015-Aug-30 06:33N 34°34' E 135°13'1310.0
2015-Aug-30 05:17N 34°24' E 135°04'912.0
2015-Aug-30 04:31N 34°16' E 134°59'1010.2
2015-Aug-30 03:33N 34°06' E 135°00'1110.6
2015-Aug-30 02:33N 33°56' E 135°00'235 5.0
2015-Aug-28 03:33N 35°02' E 139°34'1212.3
2015-Aug-28 02:33N 35°09' E 139°45'1110.9
2015-Aug-28 01:33N 35°20' E 139°43'9 8.9
2015-Aug-28 00:33N 35°29' E 139°45'0 0.2
2015-Aug-27 23:28N 35°29' E 139°44'0 0.0
2015-Aug-27 22:28N 35°29' E 139°44'0 0.0
2015-Aug-27 21:31N 35°29' E 139°44'0 0.0
2015-Aug-27 20:31N 35°29' E 139°44'0 0.0
2015-Aug-27 19:31N 35°29' E 139°44'0 0.0
2015-Aug-27 18:31N 35°29' E 139°44'0 0.0
2015-Aug-27 17:31N 35°29' E 139°44'0 0.0
2015-Aug-27 16:31N 35°29' E 139°44'0 0.0
2015-Aug-27 15:31N 35°29' E 139°44'0 0.0
2015-Aug-27 14:31N 35°29' E 139°44'0 0.0
2015-Aug-27 13:31N 35°29' E 139°44'0 0.0
2015-Aug-27 12:31N 35°29' E 139°44'0 0.0
2015-Aug-27 11:28N 35°29' E 139°44'0 0.0
2015-Aug-27 10:31N 35°29' E 139°44'0 0.0
2015-Aug-27 09:31N 35°29' E 139°44'0 0.0
2015-Aug-27 08:31N 35°29' E 139°44'0 0.0
2015-Aug-27 07:31N 35°29' E 139°44'0 0.0
2015-Aug-27 06:31N 35°29' E 139°44'0 0.0
2015-Aug-27 05:31N 35°29' E 139°44'0 0.0
2015-Aug-27 04:31N 35°29' E 139°44'0 0.0
2015-Aug-27 03:31N 35°29' E 139°44'0 0.0
2015-Aug-27 02:31N 35°29' E 139°44'0 0.0
2015-Aug-27 01:31N 35°29' E 139°44'0 0.0
2015-Aug-27 00:31N 35°29' E 139°44'0 0.0
2015-Aug-26 23:31N 35°29' E 139°44'0 0.0
2015-Aug-26 22:31N 35°29' E 139°44'0 0.0
2015-Aug-26 21:31N 35°29' E 139°44'0 0.0
2015-Aug-26 20:31N 35°29' E 139°44'0 0.0
2015-Aug-26 19:31N 35°29' E 139°44'0 0.0
2015-Aug-26 18:31N 35°29' E 139°44'0 0.0
2015-Aug-26 17:31N 35°29' E 139°44'0 0.0
2015-Aug-26 16:31N 35°29' E 139°44'0 0.0
2015-Aug-26 15:31N 35°29' E 139°44'0 0.0
2015-Aug-26 14:31N 35°29' E 139°44'0 0.0
2015-Aug-26 13:31N 35°29' E 139°44'0 0.0
2015-Aug-26 12:31N 35°29' E 139°44'0 0.0
2015-Aug-26 11:31N 35°29' E 139°44'0 0.0
2015-Aug-26 10:31N 35°29' E 139°44'0 0.0
2015-Aug-26 09:31N 35°29' E 139°44'0 0.0
2015-Aug-26 08:31N 35°29' E 139°44'0 0.0
2015-Aug-26 07:31N 35°29' E 139°44'0 0.0
2015-Aug-26 06:31N 35°29' E 139°44'0 0.0
2015-Aug-26 05:31N 35°29' E 139°44'0 0.0
2015-Aug-26 04:31N 35°29' E 139°44'0 0.0
2015-Aug-26 03:31N 35°29' E 139°44'0 0.0
2015-Aug-26 02:31N 35°29' E 139°44'0 0.0
2015-Aug-26 01:31N 35°29' E 139°44'0 0.0
2015-Aug-26 00:31N 35°29' E 139°44'0 0.1
2015-Aug-25 23:33N 35°29' E 139°45'2 2.4
2015-Aug-25 22:33N 35°26' E 139°45'0 0.1
2015-Aug-25 21:31N 35°26' E 139°45'0 0.1
2015-Aug-25 20:31N 35°26' E 139°45'0 0.1
2015-Aug-25 19:31N 35°26' E 139°45'0 0.1
2015-Aug-25 18:31N 35°27' E 139°45'0 0.1
2015-Aug-25 17:31N 35°27' E 139°45'0 0.1
2015-Aug-25 16:31N 35°27' E 139°45'0 0.0
2015-Aug-25 15:31N 35°27' E 139°45'0 0.0
2015-Aug-25 14:31N 35°26' E 139°45'0 0.0
2015-Aug-25 13:31N 35°26' E 139°45'0 0.0
2015-Aug-25 12:31N 35°26' E 139°45'0 0.0
2015-Aug-25 11:31N 35°26' E 139°45'0 0.0
2015-Aug-25 10:31N 35°26' E 139°45'0 0.1
2015-Aug-25 09:31N 35°26' E 139°45'0 0.0
2015-Aug-25 08:31N 35°27' E 139°45'0 0.1
2015-Aug-25 07:31N 35°27' E 139°45'0 0.1
2015-Aug-25 06:31N 35°26' E 139°45'0 0.2
2015-Aug-25 05:31N 35°26' E 139°45'3 3.3
2015-Aug-25 04:33N 35°23' E 139°46'1111.4
2015-Aug-25 03:33N 35°12' E 139°47'9 8.9
2015-Aug-25 02:33N 35°03' E 139°45'1110.9
2015-Aug-25 01:32N 34°53' E 139°38'  

Dump ship's entire track history